createdAt,value
2023-04-19T00:01:03.421Z,16.69
2023-04-19T00:06:08.601Z,16.89
2023-04-19T00:11:11.997Z,16.81
2023-04-19T00:16:17.453Z,16.89
2023-04-19T00:21:20.709Z,16.29
2023-04-19T00:26:23.836Z,16.23
2023-04-19T00:31:28.500Z,16.17
2023-04-19T00:36:31.800Z,16.25
2023-04-19T00:41:34.994Z,16.32
2023-04-19T00:46:40.708Z,16.07
2023-04-19T00:51:44.153Z,15.93
2023-04-19T00:56:47.757Z,15.91
2023-04-19T01:01:52.888Z,15.78
2023-04-19T01:06:56.158Z,15.51
2023-04-19T01:11:59.275Z,15.28
2023-04-19T01:17:03.836Z,14.96
2023-04-19T01:22:07.109Z,15.05
2023-04-19T01:27:11.695Z,14.90
2023-04-19T01:32:14.964Z,15.26
2023-04-19T01:37:18.065Z,15.36
2023-04-19T01:42:23.037Z,15.40
2023-04-19T01:47:25.983Z,15.24
2023-04-19T01:52:29.150Z,15.21
2023-04-19T01:57:33.750Z,15.11
2023-04-19T02:02:38.379Z,14.87
2023-04-19T02:07:41.711Z,14.89
2023-04-19T02:12:46.276Z,15.05
2023-04-19T02:17:49.676Z,14.71
2023-04-19T02:22:52.839Z,14.76
2023-04-19T02:27:57.390Z,14.67
2023-04-19T02:33:00.557Z,14.80
2023-04-19T02:38:05.050Z,14.64
2023-04-19T02:43:09.567Z,14.62
2023-04-19T02:48:12.742Z,14.49
2023-04-19T02:53:15.889Z,14.40
2023-04-19T02:58:20.500Z,14.24
2023-04-19T03:03:23.719Z,13.72
2023-04-19T03:08:26.978Z,13.50
2023-04-19T03:13:31.531Z,13.54
2023-04-19T03:18:34.890Z,13.52
2023-04-19T03:23:38.365Z,13.39
2023-04-19T03:28:42.893Z,13.42
2023-04-19T03:33:46.090Z,13.31
2023-04-19T03:38:49.281Z,13.13
2023-04-19T03:43:53.914Z,13.05
2023-04-19T03:48:57.022Z,12.93
2023-04-19T03:54:00.157Z,12.90
2023-04-19T03:59:04.695Z,12.91
2023-04-19T04:04:07.999Z,12.81
2023-04-19T04:09:11.193Z,12.68
2023-04-19T04:14:15.870Z,12.51
2023-04-19T04:19:21.971Z,12.29
2023-04-19T04:24:25.220Z,12.30
2023-04-19T04:29:29.793Z,12.20
2023-04-19T04:34:33.217Z,12.11
2023-04-19T04:39:39.421Z,12.13
2023-04-19T04:44:45.164Z,12.01
2023-04-19T04:49:48.368Z,11.98
2023-04-19T04:54:51.649Z,11.98
2023-04-19T04:59:56.648Z,11.89
2023-04-19T05:04:59.793Z,11.82
2023-04-19T05:10:02.957Z,11.79
2023-04-19T05:15:08.977Z,11.66
2023-04-19T05:20:12.597Z,11.61
2023-04-19T05:25:15.853Z,11.54
2023-04-19T05:30:20.500Z,11.50
2023-04-19T05:35:23.633Z,11.49
2023-04-19T05:40:26.917Z,11.45
2023-04-19T05:45:31.514Z,11.42
2023-04-19T05:50:34.814Z,11.28
2023-04-19T05:55:37.964Z,11.16
2023-04-19T06:00:42.882Z,11.15
2023-04-19T06:05:46.140Z,11.18
2023-04-19T06:10:54.929Z,11.22
2023-04-19T06:16:03.140Z,11.27
2023-04-19T06:21:06.484Z,11.37
2023-04-19T06:26:09.644Z,11.85
2023-04-19T06:31:14.202Z,12.50
2023-04-19T06:36:17.475Z,13.04
2023-04-19T06:41:20.736Z,13.32
2023-04-19T06:46:25.611Z,13.74
2023-04-19T06:51:28.809Z,13.98
2023-04-19T06:56:45.499Z,14.47
2023-04-19T07:01:50.326Z,14.62
2023-04-19T07:06:53.489Z,15.35
2023-04-19T07:11:57.375Z,16.20
2023-04-19T07:17:02.135Z,16.69
2023-04-19T07:22:06.343Z,17.18
2023-04-19T07:27:09.675Z,17.87
2023-04-19T07:32:15.461Z,18.44
2023-04-19T07:37:18.857Z,18.33
2023-04-19T07:42:22.150Z,18.62
2023-04-19T07:47:26.951Z,19.07
2023-04-19T07:52:30.409Z,19.70
2023-04-19T07:57:33.759Z,20.53
2023-04-19T08:02:38.520Z,20.80
2023-04-19T08:07:41.810Z,21.32
2023-04-19T08:12:57.446Z,22.51
2023-04-19T08:18:09.742Z,22.33
2023-04-19T08:23:21.628Z,23.89
2023-04-19T08:28:29.151Z,23.94
2023-04-19T08:38:38.568Z,24.56
2023-04-19T08:43:45.398Z,24.71
2023-04-19T08:48:51.596Z,24.90
2023-04-19T08:53:57.733Z,25.29
2023-04-19T08:59:15.710Z,25.83
2023-04-19T09:04:36.296Z,25.95
2023-04-19T09:09:55.652Z,25.71
2023-04-19T09:15:04.750Z,25.86
2023-04-19T09:20:10.033Z,26.21
2023-04-19T09:25:41.874Z,26.18
2023-04-19T09:31:02.402Z,26.61
2023-04-19T09:36:28.459Z,26.04
2023-04-19T09:41:35.025Z,26.38
2023-04-19T09:46:40.749Z,27.55
2023-04-19T09:51:46.355Z,27.20
2023-04-19T09:56:50.298Z,27.60
2023-04-19T10:01:56.551Z,27.65
2023-04-19T10:12:30.705Z,27.88
2023-04-19T10:17:32.428Z,27.63
2023-04-19T10:22:38.871Z,27.68
2023-04-19T10:27:49.105Z,27.60
2023-04-19T10:32:56.588Z,27.30
2023-04-19T10:38:09.830Z,28.05
2023-04-19T10:43:19.703Z,27.40
2023-04-19T10:48:44.257Z,29.15
2023-04-19T10:53:51.572Z,28.19
2023-04-19T10:59:22.664Z,27.40
2023-04-19T11:05:11.643Z,27.52
2023-04-19T11:10:29.949Z,28.17
2023-04-19T11:15:33.076Z,28.54
2023-04-19T11:20:36.182Z,28.98
2023-04-19T11:25:40.738Z,28.40
2023-04-19T11:30:44.588Z,27.89
2023-04-19T11:35:47.502Z,27.66
2023-04-19T11:41:00.317Z,27.71
2023-04-19T11:46:07.610Z,27.65
2023-04-19T11:51:11.339Z,27.59
2023-04-19T11:56:16.967Z,27.09
2023-04-19T12:01:21.192Z,27.23
2023-04-19T12:06:26.085Z,26.93
2023-04-19T12:11:45.535Z,26.57
2023-04-19T12:17:04.392Z,26.56
2023-04-19T12:22:15.798Z,26.36
2023-04-19T12:27:20.867Z,26.42
2023-04-19T12:32:24.336Z,26.31
2023-04-19T12:37:27.580Z,26.19
2023-04-19T12:42:32.128Z,26.27
2023-04-19T12:47:35.272Z,26.32
2023-04-19T12:52:38.615Z,25.99
2023-04-19T12:57:44.077Z,26.14
2023-04-19T13:02:48.554Z,26.33
2023-04-19T13:07:51.909Z,26.51
2023-04-19T13:12:56.776Z,26.42
2023-04-19T13:17:59.926Z,26.45
2023-04-19T13:23:03.132Z,26.65
2023-04-19T13:28:08.117Z,26.64
2023-04-19T13:33:11.339Z,26.48
2023-04-19T13:38:14.590Z,26.52
2023-04-19T13:43:19.275Z,26.41
2023-04-19T13:48:22.467Z,26.54
2023-04-19T13:53:29.266Z,26.54
2023-04-19T13:58:33.963Z,26.90
2023-04-19T14:03:37.264Z,26.73
2023-04-19T14:08:40.473Z,26.62
2023-04-19T14:13:45.406Z,26.71
2023-04-19T14:18:48.506Z,26.87
2023-04-19T14:23:51.619Z,26.63
2023-04-19T14:28:56.142Z,26.29
2023-04-19T14:33:59.961Z,26.40
2023-04-19T14:39:02.861Z,26.28
2023-04-19T14:44:07.400Z,26.55
2023-04-19T14:49:10.534Z,26.46
2023-04-19T14:54:13.719Z,26.33
2023-04-19T14:59:18.444Z,26.38
2023-04-19T15:04:21.901Z,26.47
2023-04-19T15:09:25.158Z,26.82
2023-04-19T15:14:29.723Z,26.55
2023-04-19T15:19:33.226Z,26.56
2023-04-19T15:24:36.540Z,26.34
2023-04-19T15:29:41.510Z,26.31
2023-04-19T15:34:44.650Z,26.35
2023-04-19T15:39:49.662Z,26.11
2023-04-19T15:44:54.199Z,25.95
2023-04-19T15:49:57.518Z,25.92
2023-04-19T15:55:00.662Z,25.69
2023-04-19T16:00:09.356Z,25.64
2023-04-19T16:05:12.617Z,25.43
2023-04-19T16:10:16.327Z,25.10
2023-04-19T16:15:20.943Z,24.78
2023-04-19T16:20:24.142Z,24.74
2023-04-19T16:25:27.344Z,24.62
2023-04-19T16:30:31.878Z,24.45
2023-04-19T16:35:35.110Z,24.41
2023-04-19T16:40:38.246Z,24.38
2023-04-19T16:45:43.703Z,24.28
2023-04-19T16:50:46.861Z,24.20
2023-04-19T16:55:50.082Z,24.21
2023-04-19T17:00:54.644Z,24.15
2023-04-19T17:05:57.816Z,23.97
2023-04-19T17:11:00.926Z,23.96
2023-04-19T17:16:06.156Z,23.87
2023-04-19T17:21:09.338Z,23.84
2023-04-19T17:26:12.467Z,23.90
2023-04-19T17:31:17.053Z,23.89
2023-04-19T17:36:20.233Z,23.87
2023-04-19T17:41:23.393Z,23.65
2023-04-19T17:46:27.932Z,23.69
2023-04-19T17:51:31.101Z,23.58
2023-04-19T17:56:34.211Z,23.61
2023-04-19T18:01:38.785Z,23.62
2023-04-19T18:06:41.897Z,23.53
2023-04-19T18:11:45.110Z,23.43
2023-04-19T18:16:49.663Z,23.21
2023-04-19T18:21:52.808Z,22.97
2023-04-19T18:26:55.959Z,22.64
2023-04-19T18:32:00.527Z,22.48
2023-04-19T18:37:05.153Z,22.40
2023-04-19T18:42:08.317Z,22.30
2023-04-19T18:47:13.080Z,22.09
2023-04-19T18:52:18.061Z,21.84
2023-04-19T18:57:23.384Z,21.60
2023-04-19T19:02:31.441Z,21.48
2023-04-19T19:07:37.083Z,21.15
2023-04-19T19:12:41.084Z,20.98
2023-04-19T19:17:49.440Z,20.80
2023-04-19T19:22:54.384Z,20.66
2023-04-19T19:28:07.005Z,20.38
2023-04-19T19:33:13.320Z,20.41
2023-04-19T19:38:17.133Z,20.31
2023-04-19T19:43:20.394Z,20.22
2023-04-19T19:48:25.743Z,20.05
2023-04-19T19:53:29.332Z,19.88
2023-04-19T19:58:46.347Z,19.77
2023-04-19T20:03:56.101Z,19.66
2023-04-19T20:08:59.805Z,19.61
2023-04-19T20:14:03.211Z,19.53
2023-04-19T20:19:10.209Z,19.34
2023-04-19T20:24:13.610Z,19.07
2023-04-19T20:29:17.175Z,19.10
2023-04-19T20:34:22.133Z,19.07
2023-04-19T20:39:25.463Z,19.11
2023-04-19T20:44:29.198Z,19.08
2023-04-19T20:49:33.828Z,19.02
2023-04-19T20:54:36.906Z,18.79
2023-04-19T20:59:41.053Z,18.85
2023-04-19T21:04:45.737Z,18.65
2023-04-19T21:09:48.749Z,18.22
2023-04-19T21:14:52.989Z,18.35
2023-04-19T21:19:57.692Z,18.41
2023-04-19T21:25:00.613Z,18.37
2023-04-19T21:30:04.461Z,18.32
2023-04-19T21:35:10.003Z,18.11
2023-04-19T21:40:13.760Z,17.85
2023-04-19T21:45:17.073Z,17.86
2023-04-19T21:50:22.006Z,17.94
2023-04-19T21:55:25.599Z,17.94
2023-04-19T22:00:29.182Z,17.79
2023-04-19T22:05:33.839Z,17.74
2023-04-19T22:10:37.079Z,17.72
2023-04-19T22:15:40.348Z,17.58
2023-04-19T22:20:45.378Z,17.62
2023-04-19T22:25:48.654Z,17.54
2023-04-19T22:30:52.755Z,17.47
2023-04-19T22:35:57.479Z,17.46
2023-04-19T22:41:01.228Z,17.51
2023-04-19T22:46:04.566Z,17.36
2023-04-19T22:51:09.705Z,17.18
2023-04-19T22:56:12.923Z,17.08
2023-04-19T23:01:16.282Z,17.05
2023-04-19T23:06:20.938Z,16.71
2023-04-19T23:11:25.262Z,16.52
2023-04-19T23:16:29.053Z,16.52
2023-04-19T23:21:33.745Z,16.52
2023-04-19T23:26:36.909Z,16.42
2023-04-19T23:31:40.241Z,16.49
2023-04-19T23:36:45.026Z,16.68
2023-04-19T23:41:48.315Z,16.58
2023-04-19T23:46:51.651Z,16.61
2023-04-19T23:51:56.328Z,16.62
2023-04-19T23:56:59.787Z,16.70
